createdAt,value
2017-10-27T00:00:44.509Z,956.91
2017-10-27T00:01:44.499Z,956.95
2017-10-27T00:02:44.489Z,956.94
2017-10-27T00:03:44.479Z,956.94
2017-10-27T00:04:44.468Z,956.87
2017-10-27T00:05:44.469Z,956.88
2017-10-27T00:06:44.448Z,956.83
2017-10-27T00:07:44.438Z,956.8
2017-10-27T00:08:44.429Z,956.76
2017-10-27T00:09:44.418Z,956.74
2017-10-27T00:10:44.408Z,956.74
2017-10-27T00:11:44.399Z,956.73
2017-10-27T00:12:44.403Z,956.79
2017-10-27T00:13:44.379Z,956.82
2017-10-27T00:14:44.370Z,956.79
2017-10-27T00:15:44.374Z,956.81
2017-10-27T00:16:44.349Z,956.76
2017-10-27T00:17:44.339Z,956.75
2017-10-27T00:18:44.330Z,956.72
2017-10-27T00:19:44.320Z,956.67
2017-10-27T00:20:44.309Z,956.61
2017-10-27T00:21:44.299Z,956.64
2017-10-27T00:22:44.292Z,956.61
2017-10-27T00:23:44.284Z,956.63
2017-10-27T00:24:44.268Z,956.57
2017-10-27T00:25:44.272Z,956.52
2017-10-27T00:26:44.250Z,956.43
2017-10-27T00:27:44.240Z,956.4
2017-10-27T00:28:44.247Z,956.38
2017-10-27T00:29:44.220Z,956.36
2017-10-27T00:30:44.212Z,956.31
2017-10-27T00:31:44.199Z,956.35
2017-10-27T00:32:44.190Z,956.36
2017-10-27T00:33:44.180Z,956.38
2017-10-27T00:34:44.172Z,956.36
2017-10-27T00:35:44.161Z,956.37
2017-10-27T00:36:44.150Z,956.34
2017-10-27T00:37:44.142Z,956.32
2017-10-27T00:38:44.133Z,956.3
2017-10-27T00:39:44.121Z,956.31
2017-10-27T00:40:44.112Z,956.29
2017-10-27T00:41:44.103Z,956.28
2017-10-27T00:42:44.092Z,956.26
2017-10-27T00:43:44.085Z,956.26
2017-10-27T00:44:44.072Z,956.32
2017-10-27T00:45:44.064Z,956.23
2017-10-27T00:46:44.053Z,956.22
2017-10-27T00:47:44.043Z,956.18
2017-10-27T00:48:44.033Z,956.21
2017-10-27T00:49:44.025Z,956.29
2017-10-27T00:50:44.014Z,956.26
2017-10-27T00:51:44.020Z,956.23
2017-10-27T00:52:43.995Z,956.22
2017-10-27T00:53:43.989Z,956.19
2017-10-27T00:54:43.975Z,956.22
2017-10-27T00:55:43.965Z,956.19
2017-10-27T00:56:43.955Z,956.25
2017-10-27T00:57:43.945Z,956.26
2017-10-27T00:58:43.937Z,956.2
2017-10-27T00:59:43.930Z,956.16
2017-10-27T01:00:43.918Z,956.1
2017-10-27T01:01:43.907Z,956.15
2017-10-27T01:02:43.898Z,956.18
2017-10-27T01:03:43.910Z,956.13
2017-10-27T01:04:43.878Z,956.12
2017-10-27T01:05:43.870Z,956.08
2017-10-27T01:06:43.859Z,956.1
2017-10-27T01:07:43.849Z,956.07
2017-10-27T01:08:43.842Z,956.1
2017-10-27T01:09:43.828Z,956.1
2017-10-27T01:10:43.820Z,956.03
2017-10-27T01:11:43.810Z,956.04
2017-10-27T01:12:43.802Z,956.01
2017-10-27T01:13:43.809Z,955.98
2017-10-27T01:14:43.782Z,955.96
2017-10-27T01:15:43.774Z,955.99
2017-10-27T01:16:43.763Z,955.98
2017-10-27T01:17:43.753Z,955.97
2017-10-27T01:18:43.743Z,955.92
2017-10-27T01:19:43.748Z,955.92
2017-10-27T01:20:43.724Z,955.87
2017-10-27T01:21:43.715Z,955.85
2017-10-27T01:22:43.706Z,955.86
2017-10-27T01:23:43.695Z,955.84
2017-10-27T01:24:43.686Z,955.82
2017-10-27T01:25:43.676Z,955.79
2017-10-27T01:26:43.666Z,955.75
2017-10-27T01:27:43.656Z,955.7
2017-10-27T01:28:43.646Z,955.71
2017-10-27T01:29:43.638Z,955.74
2017-10-27T01:30:43.647Z,955.68
2017-10-27T01:31:43.620Z,955.65
2017-10-27T01:32:43.608Z,955.68
2017-10-27T01:33:43.598Z,955.77
2017-10-27T01:34:43.589Z,955.72
2017-10-27T01:35:43.580Z,955.69
2017-10-27T01:36:43.569Z,955.71
2017-10-27T01:37:43.560Z,955.67
2017-10-27T01:38:43.553Z,955.65
2017-10-27T01:39:43.541Z,955.69
2017-10-27T01:40:43.532Z,955.65
2017-10-27T01:41:43.521Z,955.63
2017-10-27T01:42:43.513Z,955.54
2017-10-27T01:43:43.516Z,955.57
2017-10-27T01:44:43.492Z,955.65
2017-10-27T01:45:43.484Z,955.67
2017-10-27T01:46:43.491Z,955.7
2017-10-27T01:47:43.464Z,955.66
2017-10-27T01:48:43.454Z,955.65
2017-10-27T01:49:43.445Z,955.64
2017-10-27T01:50:43.434Z,955.58
2017-10-27T01:51:43.426Z,955.58
2017-10-27T01:52:43.415Z,955.53
2017-10-27T01:53:43.406Z,955.55
2017-10-27T01:54:43.396Z,955.53
2017-10-27T01:55:43.386Z,955.54
2017-10-27T01:56:43.377Z,955.49
2017-10-27T01:57:43.371Z,955.42
2017-10-27T01:58:43.358Z,955.38
2017-10-27T01:59:43.364Z,955.35
2017-10-27T02:00:43.339Z,955.34
2017-10-27T02:01:43.329Z,955.35
2017-10-27T02:02:43.328Z,955.33
2017-10-27T02:03:43.309Z,955.3
2017-10-27T02:04:43.299Z,955.3
2017-10-27T02:05:43.290Z,955.36
2017-10-27T02:06:43.279Z,955.3
2017-10-27T02:07:43.271Z,955.25
2017-10-27T02:08:43.260Z,955.23
2017-10-27T02:09:43.265Z,955.23
2017-10-27T02:10:43.240Z,955.25
2017-10-27T02:11:43.231Z,955.25
2017-10-27T02:12:43.242Z,955.28
2017-10-27T02:13:43.212Z,955.25
2017-10-27T02:14:43.201Z,955.19
2017-10-27T02:15:43.191Z,955.17
2017-10-27T02:16:43.182Z,955.14
2017-10-27T02:17:43.172Z,955.14
2017-10-27T02:18:43.162Z,955.14
2017-10-27T02:19:43.152Z,955.1
2017-10-27T02:20:43.143Z,955.13
2017-10-27T02:21:43.130Z,955.15
2017-10-27T02:22:43.122Z,955.26
2017-10-27T02:23:43.111Z,955.27
2017-10-27T02:24:43.107Z,955.24
2017-10-27T02:25:43.091Z,955.18
2017-10-27T02:26:43.082Z,955.27
2017-10-27T02:27:43.071Z,955.26
2017-10-27T02:28:43.088Z,955.31
2017-10-27T02:29:43.051Z,955.27
2017-10-27T02:30:43.039Z,955.31
2017-10-27T02:31:43.031Z,955.32
2017-10-27T02:32:43.020Z,955.29
2017-10-27T02:33:43.014Z,955.37
2017-10-27T02:34:43.000Z,955.34
2017-10-27T02:35:42.989Z,955.32
2017-10-27T02:36:42.978Z,955.36
2017-10-27T02:37:42.980Z,955.4
2017-10-27T02:38:42.958Z,955.46
2017-10-27T02:39:42.945Z,955.43
2017-10-27T02:40:42.935Z,955.28
2017-10-27T02:41:42.926Z,955.32
2017-10-27T02:42:42.915Z,955.22
2017-10-27T02:43:42.903Z,955.28
2017-10-27T02:44:42.892Z,955.31
2017-10-27T02:45:42.882Z,955.27
2017-10-27T02:46:42.872Z,955.3
2017-10-27T02:47:42.861Z,955.33
2017-10-27T02:48:42.853Z,955.3
2017-10-27T02:49:42.840Z,955.28
2017-10-27T02:50:42.827Z,955.32
2017-10-27T02:51:42.824Z,955.31
2017-10-27T02:52:42.806Z,955.27
2017-10-27T02:53:42.796Z,955.32
2017-10-27T02:54:42.784Z,955.37
2017-10-27T02:55:42.773Z,955.31
2017-10-27T02:56:42.762Z,955.27
2017-10-27T02:57:42.750Z,955.27
2017-10-27T02:58:42.740Z,955.24
2017-10-27T02:59:42.732Z,955.24
2017-10-27T03:00:42.719Z,955.2
2017-10-27T03:01:42.706Z,955.16
2017-10-27T03:02:42.695Z,955.08
2017-10-27T03:03:42.701Z,955.13
2017-10-27T03:04:42.675Z,955.12
2017-10-27T03:05:42.660Z,955.07
2017-10-27T03:06:42.650Z,955.07
2017-10-27T03:07:42.639Z,955.07
2017-10-27T03:08:42.627Z,955.01
2017-10-27T03:09:42.616Z,955.02
2017-10-27T03:10:42.605Z,955.03
2017-10-27T03:11:42.594Z,955.03
2017-10-27T03:12:42.588Z,955
2017-10-27T03:13:42.569Z,954.97
2017-10-27T03:14:42.564Z,954.95
2017-10-27T03:15:42.550Z,954.95
2017-10-27T03:16:42.543Z,954.95
2017-10-27T03:17:42.526Z,955.02
2017-10-27T03:18:42.516Z,954.99
2017-10-27T03:19:42.503Z,954.95
2017-10-27T03:20:42.492Z,954.96
2017-10-27T03:21:42.481Z,954.98
2017-10-27T03:22:42.470Z,954.95
2017-10-27T03:23:42.463Z,954.96
2017-10-27T03:24:42.448Z,954.93
2017-10-27T03:25:42.436Z,954.91
2017-10-27T03:26:42.424Z,954.86
2017-10-27T03:27:42.413Z,954.86
2017-10-27T03:28:42.402Z,954.88
2017-10-27T03:29:42.396Z,954.9
2017-10-27T03:30:42.382Z,954.82
2017-10-27T03:31:42.368Z,954.83
2017-10-27T03:32:42.358Z,954.89
2017-10-27T03:33:42.348Z,954.81
2017-10-27T03:34:42.334Z,954.8
2017-10-27T03:35:42.324Z,954.82
2017-10-27T03:36:42.314Z,954.88
2017-10-27T03:37:42.302Z,954.9
2017-10-27T03:38:42.295Z,954.94
2017-10-27T03:39:42.280Z,954.92
2017-10-27T03:40:42.269Z,954.93
2017-10-27T03:41:42.257Z,954.86
2017-10-27T03:42:42.245Z,954.89
2017-10-27T03:43:42.235Z,954.83
2017-10-27T03:44:42.224Z,954.91
2017-10-27T03:45:42.210Z,954.89
2017-10-27T03:46:42.212Z,954.91
2017-10-27T03:47:42.191Z,954.85
2017-10-27T03:48:42.180Z,954.87
2017-10-27T03:49:42.167Z,954.82
2017-10-27T03:50:42.155Z,954.81
2017-10-27T03:51:42.145Z,954.84
2017-10-27T03:52:42.132Z,954.83
2017-10-27T03:53:42.122Z,954.77
2017-10-27T03:54:42.112Z,954.77
2017-10-27T03:55:42.102Z,954.82
2017-10-27T03:56:42.089Z,954.76
2017-10-27T03:57:42.077Z,954.83
2017-10-27T03:58:42.068Z,954.84
2017-10-27T03:59:42.056Z,954.81
2017-10-27T04:00:42.044Z,954.79
2017-10-27T04:01:42.035Z,954.73
2017-10-27T04:02:42.022Z,954.71
2017-10-27T04:03:42.010Z,954.7
2017-10-27T04:04:41.998Z,954.68
2017-10-27T04:05:41.989Z,954.69
2017-10-27T04:06:41.979Z,954.71
2017-10-27T04:07:41.965Z,954.69
2017-10-27T04:08:41.955Z,954.76
2017-10-27T04:09:41.944Z,954.74
2017-10-27T04:10:41.932Z,954.73
2017-10-27T04:11:41.920Z,954.73
2017-10-27T04:12:41.910Z,954.72
2017-10-27T04:13:41.899Z,954.71
2017-10-27T04:14:41.887Z,954.74
2017-10-27T04:15:41.875Z,954.65
2017-10-27T04:16:41.867Z,954.65
2017-10-27T04:17:41.854Z,954.66
2017-10-27T04:18:41.849Z,954.68
2017-10-27T04:19:41.830Z,954.66
2017-10-27T04:20:41.821Z,954.63
2017-10-27T04:21:41.810Z,954.59
2017-10-27T04:22:41.801Z,954.62
2017-10-27T04:23:41.788Z,954.65
2017-10-27T04:24:41.777Z,954.61
2017-10-27T04:25:41.763Z,954.59
2017-10-27T04:26:41.755Z,954.59
2017-10-27T04:27:41.744Z,954.65
2017-10-27T04:28:41.732Z,954.62
2017-10-27T04:29:41.720Z,954.69
2017-10-27T04:30:41.709Z,954.72
2017-10-27T04:31:41.697Z,954.81
2017-10-27T04:32:41.685Z,954.8
2017-10-27T04:33:41.675Z,954.78
2017-10-27T04:34:41.663Z,954.68
2017-10-27T04:35:41.661Z,954.69
2017-10-27T04:36:41.640Z,954.74
2017-10-27T04:37:41.629Z,954.73
2017-10-27T04:38:41.618Z,954.75
2017-10-27T04:39:41.612Z,954.77
2017-10-27T04:40:41.594Z,954.83
2017-10-27T04:41:41.584Z,954.85
2017-10-27T04:42:41.572Z,954.8
2017-10-27T04:43:41.561Z,954.84
2017-10-27T04:44:41.553Z,954.8
2017-10-27T04:45:41.538Z,954.8
2017-10-27T04:46:41.526Z,954.84
2017-10-27T04:47:41.525Z,954.85
2017-10-27T04:48:41.504Z,954.82
2017-10-27T04:49:41.496Z,954.88
2017-10-27T04:50:41.480Z,954.85
2017-10-27T04:51:41.468Z,954.78
2017-10-27T04:52:41.457Z,954.78
2017-10-27T04:53:41.470Z,954.76
2017-10-27T04:54:41.433Z,954.8
2017-10-27T04:55:41.422Z,954.78
2017-10-27T04:56:41.410Z,954.77
2017-10-27T04:57:41.401Z,954.82
2017-10-27T04:58:41.387Z,954.8
2017-10-27T04:59:41.377Z,954.81
2017-10-27T05:00:41.365Z,954.83
2017-10-27T05:01:41.354Z,954.86
2017-10-27T05:02:41.342Z,954.84
2017-10-27T05:03:41.331Z,954.86
2017-10-27T05:04:41.317Z,954.82
2017-10-27T05:05:41.317Z,954.83
2017-10-27T05:06:41.295Z,954.85
2017-10-27T05:07:41.283Z,954.85
2017-10-27T05:08:41.272Z,954.85
2017-10-27T05:09:41.281Z,954.84
2017-10-27T05:10:41.249Z,954.85
2017-10-27T05:11:41.238Z,954.84
2017-10-27T05:12:41.225Z,954.79
2017-10-27T05:13:41.214Z,954.82
2017-10-27T05:14:41.210Z,954.82
2017-10-27T05:15:41.191Z,954.86
2017-10-27T05:16:41.178Z,954.78
2017-10-27T05:17:41.185Z,954.81
2017-10-27T05:18:41.155Z,954.84
2017-10-27T05:19:41.144Z,954.83
2017-10-27T05:20:41.132Z,954.77
2017-10-27T05:21:41.120Z,954.76
2017-10-27T05:22:41.108Z,954.64
2017-10-27T05:23:41.098Z,954.65
2017-10-27T05:24:41.086Z,954.68
2017-10-27T05:25:41.075Z,954.63
2017-10-27T05:26:41.079Z,954.61
2017-10-27T05:27:41.049Z,954.63
2017-10-27T05:28:41.040Z,954.64
2017-10-27T05:29:41.034Z,954.69
2017-10-27T05:30:41.018Z,954.68
2017-10-27T05:31:41.004Z,954.69
2017-10-27T05:32:40.991Z,954.7
2017-10-27T05:33:40.983Z,954.7
2017-10-27T05:34:40.969Z,954.72
2017-10-27T05:35:40.956Z,954.73
2017-10-27T05:36:40.944Z,954.79
2017-10-27T05:37:40.941Z,954.82
2017-10-27T05:38:40.922Z,954.87
2017-10-27T05:39:40.910Z,954.88
2017-10-27T05:40:40.898Z,954.9
2017-10-27T05:41:40.888Z,954.9
2017-10-27T05:42:40.873Z,954.89
2017-10-27T05:43:40.863Z,954.85
2017-10-27T05:44:40.852Z,954.84
2017-10-27T05:45:40.840Z,954.9
2017-10-27T05:46:40.828Z,954.89
2017-10-27T05:47:40.816Z,954.89
2017-10-27T05:48:40.812Z,954.93
2017-10-27T05:49:40.792Z,954.88
2017-10-27T05:50:40.785Z,954.9
2017-10-27T05:51:40.771Z,954.91
2017-10-27T05:52:40.757Z,954.9
2017-10-27T05:53:40.746Z,954.95
2017-10-27T05:54:40.733Z,954.95
2017-10-27T05:55:40.722Z,954.97
2017-10-27T05:56:40.711Z,954.85
2017-10-27T05:57:40.710Z,954.84
2017-10-27T05:58:40.690Z,954.84
2017-10-27T05:59:40.677Z,954.8
2017-10-27T06:00:40.664Z,954.83
2017-10-27T06:01:40.653Z,954.82
2017-10-27T06:02:40.643Z,954.81
2017-10-27T06:03:40.629Z,954.81
2017-10-27T06:04:40.617Z,954.81
2017-10-27T06:05:40.607Z,954.82
2017-10-27T06:06:40.595Z,954.81
2017-10-27T06:07:40.582Z,954.83
2017-10-27T06:08:40.570Z,954.84
2017-10-27T06:09:40.561Z,954.83
2017-10-27T06:10:40.548Z,954.78
2017-10-27T06:11:40.536Z,954.74
2017-10-27T06:12:40.525Z,954.72
2017-10-27T06:13:40.514Z,954.71
2017-10-27T06:14:40.517Z,954.67
2017-10-27T06:15:40.491Z,954.62
2017-10-27T06:16:40.478Z,954.62
2017-10-27T06:17:40.467Z,954.61
2017-10-27T06:18:40.456Z,954.58
2017-10-27T06:19:40.444Z,954.64
2017-10-27T06:20:40.432Z,954.62
2017-10-27T06:21:40.421Z,954.7
2017-10-27T06:22:40.409Z,954.7
2017-10-27T06:23:40.601Z,954.69
2017-10-27T06:24:40.386Z,954.75
2017-10-27T06:25:40.374Z,954.83
2017-10-27T06:26:40.363Z,954.82
2017-10-27T06:27:40.351Z,954.86
2017-10-27T06:28:40.339Z,954.87
2017-10-27T06:29:40.327Z,954.9
2017-10-27T06:30:40.316Z,954.9
2017-10-27T06:31:40.313Z,954.93
2017-10-27T06:32:40.294Z,954.86
2017-10-27T06:33:40.281Z,954.86
2017-10-27T06:34:40.274Z,954.88
2017-10-27T06:35:40.259Z,954.86
2017-10-27T06:36:40.249Z,954.92
2017-10-27T06:37:40.236Z,954.93
2017-10-27T06:38:40.224Z,955.02
2017-10-27T06:39:40.214Z,955.06
2017-10-27T06:40:40.202Z,955.06
2017-10-27T06:41:40.189Z,955.02
2017-10-27T06:42:40.179Z,955.02
2017-10-27T06:43:40.167Z,955.06
2017-10-27T06:44:40.155Z,955.09
2017-10-27T06:45:40.143Z,955.07
2017-10-27T06:46:40.133Z,955.07
2017-10-27T06:47:40.121Z,955.07
2017-10-27T06:48:40.109Z,955.08
2017-10-27T06:49:40.104Z,955.05
2017-10-27T06:50:40.086Z,955.09
2017-10-27T06:51:40.097Z,955.11
2017-10-27T06:52:40.062Z,955.09
2017-10-27T06:53:40.051Z,955.13
2017-10-27T06:54:40.042Z,955.18
2017-10-27T06:55:40.050Z,955.1
2017-10-27T06:56:40.018Z,955.12
2017-10-27T06:57:40.012Z,955.19
2017-10-27T06:58:39.993Z,955.18
2017-10-27T06:59:39.983Z,955.13
2017-10-27T07:00:39.971Z,955.13
2017-10-27T07:01:39.959Z,955.15
2017-10-27T07:02:39.948Z,955.16
2017-10-27T07:03:39.945Z,955.1
2017-10-27T07:04:39.924Z,955.18
2017-10-27T07:05:39.913Z,955.22
2017-10-27T07:06:39.911Z,955.33
2017-10-27T07:07:39.890Z,955.25
2017-10-27T07:08:39.878Z,955.3
2017-10-27T07:09:39.891Z,955.23
2017-10-27T07:10:39.866Z,955.26
2017-10-27T07:11:39.907Z,955.26
2017-10-27T07:12:39.831Z,955.27
2017-10-27T07:13:39.840Z,955.28
2017-10-27T07:14:39.809Z,955.26
2017-10-27T07:15:39.798Z,955.25
2017-10-27T07:16:39.786Z,955.27
2017-10-27T07:17:39.775Z,955.27
2017-10-27T07:18:39.768Z,955.29
2017-10-27T07:19:39.751Z,955.3
2017-10-27T07:20:39.745Z,955.32
2017-10-27T07:21:39.727Z,955.39
2017-10-27T07:22:39.716Z,955.31
2017-10-27T07:23:39.710Z,955.32
2017-10-27T07:24:39.692Z,955.36
2017-10-27T07:25:39.682Z,955.34
2017-10-27T07:26:39.670Z,955.35
2017-10-27T07:27:39.658Z,955.38
2017-10-27T07:28:39.645Z,955.42
2017-10-27T07:29:39.635Z,955.47
2017-10-27T07:30:39.624Z,955.47
2017-10-27T07:31:39.612Z,955.48
2017-10-27T07:32:39.600Z,955.49
2017-10-27T07:33:39.590Z,955.47
2017-10-27T07:34:39.578Z,955.42
2017-10-27T07:35:39.565Z,955.46
2017-10-27T07:36:39.555Z,955.48
2017-10-27T07:37:39.543Z,955.48
2017-10-27T07:38:39.531Z,955.48
2017-10-27T07:39:39.519Z,955.41
2017-10-27T07:40:39.508Z,955.47
2017-10-27T07:41:39.497Z,955.44
2017-10-27T07:42:39.483Z,955.49
2017-10-27T07:43:39.474Z,955.49
2017-10-27T07:44:39.461Z,955.53
2017-10-27T07:45:39.470Z,955.54
2017-10-27T07:46:39.474Z,955.5
2017-10-27T07:47:39.427Z,955.55
2017-10-27T07:48:39.415Z,955.5
2017-10-27T07:49:39.405Z,955.52
2017-10-27T07:50:39.391Z,955.46
2017-10-27T07:51:39.381Z,955.49
2017-10-27T07:52:39.373Z,955.52
2017-10-27T07:53:39.360Z,955.52
2017-10-27T07:54:39.345Z,955.55
2017-10-27T07:55:39.334Z,955.48
2017-10-27T07:56:39.324Z,955.51
2017-10-27T07:57:39.311Z,955.53
2017-10-27T07:58:39.299Z,955.52
2017-10-27T07:59:39.310Z,955.57
2017-10-27T08:00:39.276Z,955.52
2017-10-27T08:01:39.264Z,955.58
2017-10-27T08:02:39.252Z,955.55
2017-10-27T08:03:39.242Z,955.63
2017-10-27T08:04:39.238Z,955.62
2017-10-27T08:05:39.217Z,955.63
2017-10-27T08:06:39.206Z,955.6
2017-10-27T08:07:39.195Z,955.54
2017-10-27T08:08:39.182Z,955.59
2017-10-27T08:09:39.172Z,955.63
2017-10-27T08:10:39.164Z,955.7
2017-10-27T08:11:39.149Z,955.65
2017-10-27T08:12:39.135Z,955.68
2017-10-27T08:13:39.125Z,955.69
2017-10-27T08:14:39.113Z,955.67
2017-10-27T08:15:39.101Z,955.69
2017-10-27T08:16:39.111Z,955.69
2017-10-27T08:17:39.085Z,955.72
2017-10-27T08:18:39.067Z,955.67
2017-10-27T08:19:39.056Z,955.69
2017-10-27T08:20:39.044Z,955.7
2017-10-27T08:21:39.033Z,955.79
2017-10-27T08:22:39.022Z,955.75
2017-10-27T08:23:39.009Z,955.8
2017-10-27T08:24:38.997Z,955.88
2017-10-27T08:25:38.987Z,955.89
2017-10-27T08:26:38.975Z,955.9
2017-10-27T08:27:38.963Z,955.87
2017-10-27T08:28:38.974Z,955.87
2017-10-27T08:29:38.941Z,955.94
2017-10-27T08:30:38.929Z,955.89
2017-10-27T08:31:38.918Z,955.97
2017-10-27T08:32:38.906Z,955.93
2017-10-27T08:33:38.894Z,956
2017-10-27T08:34:38.882Z,956.04
2017-10-27T08:35:38.871Z,956.08
2017-10-27T08:36:38.861Z,956.05
2017-10-27T08:37:38.856Z,956.06
2017-10-27T08:38:38.837Z,956.17
2017-10-27T08:39:38.827Z,956.23
2017-10-27T08:40:38.815Z,956.14
2017-10-27T08:41:38.804Z,956.16
2017-10-27T08:42:38.791Z,956.11
2017-10-27T08:43:38.781Z,956.06
2017-10-27T08:44:38.769Z,956.11
2017-10-27T08:45:38.757Z,956.17
2017-10-27T08:46:38.747Z,956.16
2017-10-27T08:47:38.736Z,956.16
2017-10-27T08:48:38.724Z,956.13
2017-10-27T08:49:38.711Z,956.16
2017-10-27T08:50:38.701Z,956.15
2017-10-27T08:51:38.688Z,956.12
2017-10-27T08:52:38.677Z,956.13
2017-10-27T08:53:38.666Z,956.13
2017-10-27T08:54:38.653Z,956.13
2017-10-27T08:55:38.645Z,956.15
2017-10-27T08:56:38.637Z,956.13
2017-10-27T08:57:38.619Z,956.16
2017-10-27T08:58:38.609Z,956.21
2017-10-27T08:59:38.599Z,956.21
2017-10-27T09:00:38.584Z,956.14
2017-10-27T09:01:38.592Z,956.23
2017-10-27T09:02:38.566Z,956.21
2017-10-27T09:03:38.575Z,956.24
2017-10-27T09:04:38.538Z,956.24
2017-10-27T09:05:38.533Z,956.26
2017-10-27T09:06:38.517Z,956.21
2017-10-27T09:07:38.506Z,956.26
2017-10-27T09:08:38.502Z,956.31
2017-10-27T09:09:38.483Z,956.3
2017-10-27T09:10:38.472Z,956.29
2017-10-27T09:11:38.461Z,956.31
2017-10-27T09:12:38.449Z,956.31
2017-10-27T09:13:38.438Z,956.33
2017-10-27T09:14:38.425Z,956.34
2017-10-27T09:15:38.415Z,956.33
2017-10-27T09:16:38.404Z,956.35
2017-10-27T09:17:38.392Z,956.34
2017-10-27T09:18:38.381Z,956.34
2017-10-27T09:19:38.370Z,956.31
2017-10-27T09:20:38.359Z,956.36
2017-10-27T09:21:38.347Z,956.33
2017-10-27T09:22:38.336Z,956.35
2017-10-27T09:23:38.325Z,956.37
2017-10-27T09:24:38.315Z,956.41
2017-10-27T09:25:38.303Z,956.42
2017-10-27T09:26:38.290Z,956.48
2017-10-27T09:27:38.299Z,956.45
2017-10-27T09:28:38.268Z,956.48
2017-10-27T09:29:38.256Z,956.52
2017-10-27T09:30:38.246Z,956.59
2017-10-27T09:31:38.234Z,956.54
2017-10-27T09:32:38.222Z,956.56
2017-10-27T09:33:38.230Z,956.57
2017-10-27T09:34:38.200Z,956.48
2017-10-27T09:35:38.190Z,956.63
2017-10-27T09:36:38.177Z,956.68
2017-10-27T09:37:38.168Z,956.82
2017-10-27T09:38:38.158Z,956.63
2017-10-27T09:39:38.142Z,956.69
2017-10-27T09:40:38.136Z,956.73
2017-10-27T09:41:38.121Z,956.78
2017-10-27T09:42:38.110Z,956.81
2017-10-27T09:43:38.096Z,956.8
2017-10-27T09:44:38.085Z,956.78
2017-10-27T09:45:38.083Z,956.89
2017-10-27T09:46:38.061Z,956.92
2017-10-27T09:47:38.049Z,956.93
2017-10-27T09:48:38.037Z,956.97
2017-10-27T09:49:38.037Z,956.95
2017-10-27T09:50:38.014Z,956.97
2017-10-27T09:51:38.001Z,956.97
2017-10-27T09:52:37.991Z,956.98
2017-10-27T09:53:37.978Z,956.96
2017-10-27T09:54:37.965Z,956.99
2017-10-27T09:55:37.955Z,957.06
2017-10-27T09:56:37.943Z,957.09
2017-10-27T09:57:37.932Z,957.07
2017-10-27T09:58:37.918Z,957.08
2017-10-27T09:59:37.907Z,957.06
2017-10-27T10:00:37.895Z,957.05
2017-10-27T10:01:37.883Z,956.99
2017-10-27T10:02:37.871Z,957.13
2017-10-27T10:03:37.860Z,957.05
2017-10-27T10:04:37.847Z,957.01
2017-10-27T10:05:37.841Z,957.07
2017-10-27T10:06:37.824Z,957.04
2017-10-27T10:07:37.813Z,956.98
2017-10-27T10:08:37.801Z,956.98
2017-10-27T10:09:37.789Z,957
2017-10-27T10:10:37.782Z,956.99
2017-10-27T10:11:37.766Z,957.02
2017-10-27T10:12:37.754Z,957.02
2017-10-27T10:13:37.766Z,957.08
2017-10-27T10:14:37.733Z,957.04
2017-10-27T10:15:37.722Z,957.09
2017-10-27T10:16:37.709Z,957.06
2017-10-27T10:17:37.698Z,957.12
2017-10-27T10:18:37.742Z,957.15
2017-10-27T10:19:37.677Z,957.11
2017-10-27T10:20:37.665Z,957.13
2017-10-27T10:21:37.655Z,957.16
2017-10-27T10:22:37.645Z,957.15
2017-10-27T10:23:37.634Z,957.03
2017-10-27T10:24:37.623Z,957.16
2017-10-27T10:25:37.613Z,957.21
2017-10-27T10:26:37.602Z,957.25
2017-10-27T10:27:37.591Z,957.27
2017-10-27T10:28:37.582Z,957.2
2017-10-27T10:29:37.571Z,957.28
2017-10-27T10:30:37.560Z,957.26
2017-10-27T10:31:37.548Z,957.29
2017-10-27T10:32:37.537Z,957.31
2017-10-27T10:33:37.529Z,957.35
2017-10-27T10:34:37.517Z,957.3
2017-10-27T10:35:37.506Z,957.29
2017-10-27T10:36:37.495Z,957.29
2017-10-27T10:37:37.487Z,957.33
2017-10-27T10:38:37.476Z,957.26
2017-10-27T10:39:37.471Z,957.21
2017-10-27T10:40:37.453Z,957.26
2017-10-27T10:41:37.451Z,957.28
2017-10-27T10:42:37.439Z,957.27
2017-10-27T10:43:37.423Z,957.26
2017-10-27T10:44:37.412Z,957.27
2017-10-27T10:45:37.401Z,957.27
2017-10-27T10:46:37.393Z,957.34
2017-10-27T10:47:37.405Z,957.31
2017-10-27T10:48:37.375Z,957.24
2017-10-27T10:49:37.358Z,957.26
2017-10-27T10:50:37.347Z,957.34
2017-10-27T10:51:37.339Z,957.28
2017-10-27T10:52:37.327Z,957.19
2017-10-27T10:53:37.316Z,957.24
2017-10-27T10:54:37.307Z,957.34
2017-10-27T10:55:37.306Z,957.29
2017-10-27T10:56:37.285Z,957.31
2017-10-27T10:57:37.273Z,957.33
2017-10-27T10:58:37.267Z,957.36
2017-10-27T10:59:37.255Z,957.31
2017-10-27T11:00:37.242Z,957.31
2017-10-27T11:01:37.233Z,957.31
2017-10-27T11:02:37.221Z,957.41
2017-10-27T11:03:37.212Z,957.42
2017-10-27T11:04:37.200Z,957.44
2017-10-27T11:05:37.189Z,957.47
2017-10-27T11:06:37.182Z,957.53
2017-10-27T11:07:37.169Z,957.55
2017-10-27T11:08:37.158Z,957.56
2017-10-27T11:09:37.147Z,957.54
2017-10-27T11:10:37.138Z,957.61
2017-10-27T11:11:37.126Z,957.64
2017-10-27T11:12:37.123Z,957.67
2017-10-27T11:13:37.105Z,957.68
2017-10-27T11:14:37.105Z,957.62
2017-10-27T11:15:37.084Z,957.66
2017-10-27T11:16:37.074Z,957.63
2017-10-27T11:17:37.063Z,957.62
2017-10-27T11:18:37.067Z,957.64
2017-10-27T11:19:37.048Z,957.67
2017-10-27T11:20:37.031Z,957.64
2017-10-27T11:21:37.021Z,957.66
2017-10-27T11:22:37.010Z,957.58
2017-10-27T11:23:37.005Z,957.64
2017-10-27T11:24:36.989Z,957.59
2017-10-27T11:25:36.986Z,957.69
2017-10-27T11:26:36.970Z,957.71
2017-10-27T11:27:36.957Z,957.64
2017-10-27T11:28:36.948Z,957.68
2017-10-27T11:29:36.936Z,957.71
2017-10-27T11:30:36.938Z,957.77
2017-10-27T11:31:36.919Z,957.68
2017-10-27T11:32:36.905Z,957.62
2017-10-27T11:33:36.913Z,957.68
2017-10-27T11:34:36.884Z,957.67
2017-10-27T11:35:36.874Z,957.65
2017-10-27T11:36:36.861Z,957.74
2017-10-27T11:37:36.852Z,957.69
2017-10-27T11:38:36.842Z,957.64
2017-10-27T11:39:36.831Z,957.7
2017-10-27T11:40:36.820Z,957.73
2017-10-27T11:41:36.809Z,957.75
2017-10-27T11:42:36.807Z,957.74
2017-10-27T11:43:36.789Z,957.75
2017-10-27T11:44:36.777Z,957.72
2017-10-27T11:45:36.768Z,957.73
2017-10-27T11:46:36.756Z,957.75
2017-10-27T11:47:36.748Z,957.81
2017-10-27T11:48:36.734Z,957.75
2017-10-27T11:49:36.726Z,957.84
2017-10-27T11:50:36.713Z,957.75
2017-10-27T11:51:36.721Z,957.75
2017-10-27T11:52:36.702Z,957.77
2017-10-27T11:53:36.681Z,957.76
2017-10-27T11:54:36.672Z,957.79
2017-10-27T11:55:36.672Z,957.7
2017-10-27T11:56:36.652Z,957.77
2017-10-27T11:57:36.640Z,957.78
2017-10-27T11:58:36.628Z,957.85
2017-10-27T11:59:36.622Z,957.8
2017-10-27T12:00:36.608Z,957.83
2017-10-27T12:01:36.613Z,957.84
2017-10-27T12:02:36.586Z,957.79
2017-10-27T12:03:36.576Z,957.76
2017-10-27T12:04:36.567Z,957.82
2017-10-27T12:05:36.556Z,957.79
2017-10-27T12:06:36.545Z,957.75
2017-10-27T12:07:36.536Z,957.81
2017-10-27T12:08:36.524Z,957.79
2017-10-27T12:09:36.512Z,957.88
2017-10-27T12:10:36.502Z,957.9
2017-10-27T12:11:36.491Z,957.91
2017-10-27T12:12:36.481Z,957.92
2017-10-27T12:13:36.482Z,957.95
2017-10-27T12:14:36.458Z,957.94
2017-10-27T12:15:36.460Z,957.94
2017-10-27T12:16:36.439Z,957.9
2017-10-27T12:17:36.428Z,957.94
2017-10-27T12:18:36.419Z,957.93
2017-10-27T12:19:36.411Z,958
2017-10-27T12:20:36.396Z,957.97
2017-10-27T12:21:36.386Z,957.95
2017-10-27T12:22:36.374Z,957.94
2017-10-27T12:23:36.363Z,957.94
2017-10-27T12:24:36.353Z,957.95
2017-10-27T12:25:36.342Z,957.93
2017-10-27T12:26:36.332Z,957.96
2017-10-27T12:27:36.321Z,957.98
2017-10-27T12:28:36.309Z,958.02
2017-10-27T12:29:36.300Z,957.95
2017-10-27T12:30:36.287Z,958